Fayetteville, NC

7:24 AM EST on November 27, 2014 (GMT -0500)
Fayetteville Regional-Grannis | Change Station
CLOSE
Current Station
Airport
Location: Fayetteville,
Elevation: 190 ft
Nearby Weather Stations

Elev 190 ft 34.99 °N, 78.88 °W | Updated 31 minutes ago

Overcast
Overcast
40 °F
Feels Like 38 °F
N
4
Wind Variable Wind from SSE

Today
High -- | Low -- °F
--% Chance of Precip.
Yesterday
High -- | Low -- °F
Precip. -- in
7:01 AM 5:04 PM
Waxing Crescent, 29% visible
Pressure 29.99 in
Visibility 7.0 miles
Clouds Few 300 ft
Mostly Cloudy 7500 ft
Overcast 10000 ft
Windchill 38 °F
Dew Point 39 °F
Humidity 97%
Rainfall 0.00 in
Snow Depth Not available.
UV 0 out of 12
Pollen .10 out of 12
Air Quality Not available.
Flu Activity Not available.
METAR KFAY 271153Z AUTO 16003KT 7SM FEW003 BKN075 OVC100 04/04 A3000 RMK AO2 SLP155 70020 T00440039 10044 20028 56013

More Conditions Fewer Conditions

Pressure 29.99 in
Visibility 7.0 miles
Clouds Few 300 ft
Mostly Cloudy 7500 ft
Overcast 10000 ft
Windchill 38 °F
Dew Point 39 °F
Humidity 97%
Rainfall 0.00 in
Snow Depth Not available.
UV 0 out of 12
Pollen .10 out of 12
Air Quality Not available.
Flu Activity Not available.
METAR KFAY 271153Z AUTO 16003KT 7SM FEW003 BKN075 OVC100 04/04 A3000 RMK AO2 SLP155 70020 T00440039 10044 20028 56013

More Conditions Fewer Conditions

10-Day Weather Forecast

Almanac

Astronomy

Nov. 27, 2014 Rise Set
Actual Time
Civil Twilight
Nautical Twilight
Astronomical Twilight
Moon
Length of Visible Light
Length of Day
Tomorrow will be .
, % of the Moon is Illuminated

Today's Extremes

State Highs State Lows

Community

WunderPhotos

Upload Photos

1,773,977 photos uploaded!

WunderBlogs® & News

Nearby

Air Quality

  Air Quality AQ Index Pollutant
Not available.

Snow Depth

Station Depth Elevation

Earthquake Activity

City Distance Mag. Time & Date
Minimum magnitude displayed is 2.5.

Coastal Water Temperatures

Place Temperature

Nearby Weather Stations